Terminal Aerodrome Forecast
Issued by NWS Twin Cities, MN

Home | Current Version | Previous Version | Text Only | Print | Product List | Glossary Off
Versions: 1 2 3 4 5 6 7 8 9 10 11 12 13 14 15 16 17 18 19 20 21 22 23 24 25

000
FTUS43 KMPX 192103 AAA
TAFMSP
TAF AMD
KMSP 192103Z 1921/2024 22008KT P6SM FEW035
     FM200100 16006KT P6SM SCT250
     FM201300 20006KT P6SM SCT080
     FM201900 24008KT P6SM VCSH BKN060=

USA.gov is the U.S. government's official web portal to all federal, state and local government web resources and services.